Terminal Aerodrome Forecast
Issued by NWS Cleveland, OH

Home | Current Version | Previous Version | Graphics & Text | Print | Product List | Glossary On
Versions: 1 2 3 4 5 6 7 8 9 10 11 12 13 14 15 16 17 18 19 20 21
000
FTUS41 KCLE 142200 AAA
TAFYNG
TAF AMD
KYNG 142204Z 1422/1518 22015G25KT P6SM SCT012 OVC025
      TEMPO 1423/1501 3SM -RA BR OVC012
     FM150100 25012G20KT P6SM VCSH OVC012
     FM150600 33012KT 3SM -SHRA BR SCT006 OVC012
     FM151000 33015G25KT 2SM -SN OVC006
     FM151700 32015G25KT 4SM -SHSN SCT006 OVC012=

USA.gov is the U.S. government's official web portal to all federal, state and local government web resources and services.